createdAt,value
2023-03-26T00:00:49.609Z,8.45
2023-03-26T00:01:40.488Z,8.45
2023-03-26T00:02:31.381Z,8.47
2023-03-26T00:03:22.140Z,8.45
2023-03-26T00:04:12.938Z,8.45
2023-03-26T00:05:03.720Z,8.45
2023-03-26T00:05:54.701Z,8.45
2023-03-26T00:06:45.538Z,8.44
2023-03-26T00:07:36.318Z,8.45
2023-03-26T00:08:27.105Z,8.44
2023-03-26T00:09:17.928Z,8.45
2023-03-26T00:10:08.700Z,8.44
2023-03-26T00:11:01.056Z,8.45
2023-03-26T00:11:50.602Z,8.44
2023-03-26T00:12:41.402Z,8.44
2023-03-26T00:13:32.192Z,8.42
2023-03-26T00:14:22.977Z,8.44
2023-03-26T00:15:13.764Z,8.44
2023-03-26T00:16:04.616Z,8.44
2023-03-26T00:16:55.431Z,8.45
2023-03-26T00:17:46.246Z,8.45
2023-03-26T00:18:36.994Z,8.45
2023-03-26T00:19:27.823Z,8.45
2023-03-26T00:20:18.566Z,8.44
2023-03-26T00:21:09.373Z,8.42
2023-03-26T00:22:00.153Z,8.45
2023-03-26T00:22:50.964Z,8.45
2023-03-26T00:23:41.739Z,8.45
2023-03-26T00:24:32.558Z,8.45
2023-03-26T00:25:23.325Z,8.44
2023-03-26T00:26:14.117Z,8.45
2023-03-26T00:27:04.905Z,8.44
2023-03-26T00:27:55.699Z,8.44
2023-03-26T00:28:46.481Z,8.44
2023-03-26T00:29:37.298Z,8.44
2023-03-26T00:30:28.107Z,8.44
2023-03-26T00:31:18.888Z,8.40
2023-03-26T00:32:09.652Z,8.44
2023-03-26T00:33:00.484Z,8.42
2023-03-26T00:33:51.233Z,8.42
2023-03-26T00:34:42.051Z,8.40
2023-03-26T00:35:32.869Z,8.40
2023-03-26T00:36:23.687Z,8.39
2023-03-26T00:37:14.468Z,8.40
2023-03-26T00:38:05.262Z,8.40
2023-03-26T00:38:56.073Z,8.39
2023-03-26T00:39:46.869Z,8.39
2023-03-26T00:40:37.639Z,8.42
2023-03-26T00:41:28.426Z,8.40
2023-03-26T00:42:19.213Z,8.40
2023-03-26T00:43:10.015Z,8.42
2023-03-26T00:44:00.799Z,8.40
2023-03-26T00:44:51.593Z,8.40
2023-03-26T00:45:42.477Z,8.39
2023-03-26T00:46:33.262Z,8.39
2023-03-26T00:47:24.058Z,8.37
2023-03-26T00:48:14.810Z,8.39
2023-03-26T00:49:05.652Z,8.36
2023-03-26T00:49:56.422Z,8.36
2023-03-26T00:50:47.221Z,8.36
2023-03-26T00:51:37.993Z,8.37
2023-03-26T00:52:28.808Z,8.37
2023-03-26T00:53:19.597Z,8.36
2023-03-26T00:54:10.383Z,8.35
2023-03-26T00:55:01.206Z,8.35
2023-03-26T00:55:52.078Z,8.36
2023-03-26T00:56:42.962Z,8.37
2023-03-26T00:57:35.772Z,8.37
2023-03-26T00:58:25.053Z,8.37
2023-03-26T00:59:15.849Z,8.37
2023-03-26T01:00:06.637Z,8.35
2023-03-26T01:00:57.441Z,8.36
2023-03-26T01:01:48.267Z,8.37
2023-03-26T01:02:39.063Z,8.35
2023-03-26T01:03:29.877Z,8.36
2023-03-26T01:04:20.947Z,8.36
2023-03-26T01:05:11.866Z,8.36
2023-03-26T01:06:02.636Z,8.36
2023-03-26T01:06:53.389Z,8.36
2023-03-26T01:07:44.174Z,8.33
2023-03-26T01:08:34.972Z,8.35
2023-03-26T01:09:25.782Z,8.35
2023-03-26T01:10:16.599Z,8.33
2023-03-26T01:11:07.411Z,8.29
2023-03-26T01:11:58.159Z,8.29
2023-03-26T01:12:48.959Z,8.29
2023-03-26T01:13:39.750Z,8.29
2023-03-26T01:14:30.561Z,8.29
2023-03-26T01:15:21.340Z,8.28
2023-03-26T01:16:12.140Z,8.28
2023-03-26T01:17:02.955Z,8.29
2023-03-26T01:17:53.721Z,8.29
2023-03-26T01:18:44.495Z,8.26
2023-03-26T01:19:35.297Z,8.26
2023-03-26T01:20:26.092Z,8.28
2023-03-26T01:21:16.870Z,8.26
2023-03-26T01:22:07.663Z,8.26
2023-03-26T01:22:58.445Z,8.26
2023-03-26T01:23:49.244Z,8.25
2023-03-26T01:24:40.049Z,8.25
2023-03-26T01:25:30.847Z,8.26
2023-03-26T01:26:21.611Z,8.26
2023-03-26T01:27:12.403Z,8.26
2023-03-26T01:28:03.195Z,8.26
2023-03-26T01:28:53.986Z,8.26
2023-03-26T01:29:44.784Z,8.28
2023-03-26T01:30:35.582Z,8.28
2023-03-26T01:31:26.365Z,8.26
2023-03-26T01:32:17.179Z,8.28
2023-03-26T01:33:08.199Z,8.28
2023-03-26T01:33:58.960Z,8.25
2023-03-26T01:34:49.768Z,8.25
2023-03-26T01:35:40.586Z,8.26
2023-03-26T01:36:31.339Z,8.26
2023-03-26T01:37:22.125Z,8.26
2023-03-26T01:38:12.917Z,8.25
2023-03-26T01:39:03.718Z,8.26
2023-03-26T01:39:54.528Z,8.25
2023-03-26T01:40:45.376Z,8.25
2023-03-26T01:41:36.082Z,8.22
2023-03-26T01:42:26.869Z,8.22
2023-03-26T01:43:17.662Z,8.22
2023-03-26T01:44:08.450Z,8.20
2023-03-26T01:44:59.253Z,8.22
2023-03-26T01:45:50.042Z,8.22
2023-03-26T01:46:40.846Z,8.21
2023-03-26T01:47:31.653Z,8.22
2023-03-26T01:48:22.402Z,8.22
2023-03-26T01:49:13.532Z,8.22
2023-03-26T01:50:04.480Z,8.22
2023-03-26T01:50:55.266Z,8.21
2023-03-26T01:51:46.052Z,8.20
2023-03-26T01:52:36.828Z,8.21
2023-03-26T01:53:27.633Z,8.22
2023-03-26T01:54:18.403Z,8.18
2023-03-26T01:55:09.198Z,8.18
2023-03-26T01:55:59.993Z,8.15
2023-03-26T01:56:50.833Z,8.15
2023-03-26T01:57:41.597Z,8.11
2023-03-26T01:58:32.377Z,8.10
2023-03-26T01:59:23.178Z,8.10
2023-03-26T02:00:13.960Z,8.03
2023-03-26T02:01:04.772Z,8.00
2023-03-26T02:01:55.583Z,7.99
2023-03-26T02:02:46.525Z,7.94
2023-03-26T02:03:37.402Z,7.92
2023-03-26T02:04:28.160Z,7.89
2023-03-26T02:05:18.970Z,7.84
2023-03-26T02:06:09.760Z,7.82
2023-03-26T02:07:00.529Z,7.82
2023-03-26T02:07:51.323Z,7.77
2023-03-26T02:08:42.096Z,7.75
2023-03-26T02:09:32.890Z,7.74
2023-03-26T02:10:23.680Z,7.74
2023-03-26T02:11:16.007Z,7.71
2023-03-26T02:12:05.239Z,7.71
2023-03-26T02:12:56.103Z,7.67
2023-03-26T02:13:46.912Z,7.67
2023-03-26T02:14:37.682Z,7.63
2023-03-26T02:15:28.472Z,7.60
2023-03-26T02:16:19.403Z,7.59
2023-03-26T02:17:10.124Z,7.59
2023-03-26T02:18:00.934Z,7.58
2023-03-26T02:18:51.698Z,7.55
2023-03-26T02:19:42.509Z,7.52
2023-03-26T02:20:33.296Z,7.52
2023-03-26T02:21:24.077Z,7.49
2023-03-26T02:22:14.860Z,7.44
2023-03-26T02:23:05.649Z,7.47
2023-03-26T02:23:56.440Z,7.41
2023-03-26T02:24:47.227Z,7.41
2023-03-26T02:25:38.028Z,7.41
2023-03-26T02:26:28.834Z,7.41
2023-03-26T02:27:19.596Z,7.40
2023-03-26T02:28:10.389Z,7.38
2023-03-26T02:29:01.209Z,7.38
2023-03-26T02:29:51.958Z,7.40
2023-03-26T02:30:42.735Z,7.38
2023-03-26T02:31:33.532Z,7.37
2023-03-26T02:32:24.340Z,7.37
2023-03-26T02:33:15.114Z,7.37
2023-03-26T02:34:05.899Z,7.35
2023-03-26T02:34:56.694Z,7.37
2023-03-26T02:35:47.629Z,7.35
2023-03-26T02:36:38.612Z,7.37
2023-03-26T02:37:29.445Z,7.37
2023-03-26T02:38:20.237Z,7.37
2023-03-26T02:39:11.022Z,7.35
2023-03-26T02:40:01.841Z,7.34
2023-03-26T02:40:52.635Z,7.34
2023-03-26T02:41:43.431Z,7.34
2023-03-26T02:42:34.185Z,7.34
2023-03-26T02:43:24.982Z,7.34
2023-03-26T02:44:15.764Z,7.34
2023-03-26T02:45:06.572Z,7.32
2023-03-26T02:45:57.638Z,7.34
2023-03-26T02:46:48.064Z,7.34
2023-03-26T02:47:38.868Z,7.34
2023-03-26T02:48:29.627Z,7.32
2023-03-26T02:49:20.410Z,7.31
2023-03-26T02:50:11.204Z,7.29
2023-03-26T02:51:01.988Z,7.31
2023-03-26T02:51:52.782Z,7.31
2023-03-26T02:52:43.578Z,7.31
2023-03-26T02:53:34.372Z,7.31
2023-03-26T02:54:25.156Z,7.29
2023-03-26T02:55:15.953Z,7.29
2023-03-26T02:56:06.750Z,7.31
2023-03-26T02:56:57.618Z,7.31
2023-03-26T02:57:48.372Z,7.31
2023-03-26T02:58:39.176Z,7.31
2023-03-26T02:59:29.965Z,7.32
2023-03-26T03:00:20.769Z,7.31
2023-03-26T03:01:11.597Z,7.31
2023-03-26T03:02:02.403Z,7.31
2023-03-26T03:02:53.334Z,7.29
2023-03-26T03:03:44.117Z,7.27
2023-03-26T03:04:34.885Z,7.26
2023-03-26T03:05:25.686Z,7.24
2023-03-26T03:06:16.477Z,7.26
2023-03-26T03:07:07.266Z,7.26
2023-03-26T03:07:58.069Z,7.26
2023-03-26T03:08:48.849Z,7.27
2023-03-26T03:09:39.634Z,7.26
2023-03-26T03:10:30.425Z,7.26
2023-03-26T03:11:21.211Z,7.27
2023-03-26T03:12:12.022Z,7.26
2023-03-26T03:13:02.789Z,7.24
2023-03-26T03:13:53.598Z,7.23
2023-03-26T03:14:44.375Z,7.23
2023-03-26T03:15:35.224Z,7.23
2023-03-26T03:16:26.004Z,7.23
2023-03-26T03:17:16.751Z,7.24
2023-03-26T03:18:07.536Z,7.23
2023-03-26T03:18:58.499Z,7.23
2023-03-26T03:19:49.235Z,7.23
2023-03-26T03:20:40.026Z,7.23
2023-03-26T03:21:30.854Z,7.22
2023-03-26T03:22:21.601Z,7.22
2023-03-26T03:23:12.386Z,7.22
2023-03-26T03:24:03.185Z,7.23
2023-03-26T03:24:53.978Z,7.23
2023-03-26T03:25:44.773Z,7.22
2023-03-26T03:26:35.560Z,7.22
2023-03-26T03:27:26.367Z,7.19
2023-03-26T03:28:17.130Z,7.19
2023-03-26T03:29:07.963Z,7.20
2023-03-26T03:29:58.717Z,7.20
2023-03-26T03:30:49.523Z,7.19
2023-03-26T03:31:40.297Z,7.19
2023-03-26T03:32:31.137Z,7.19
2023-03-26T03:33:21.896Z,7.19
2023-03-26T03:34:12.681Z,7.17
2023-03-26T03:35:03.467Z,7.15
2023-03-26T03:35:54.477Z,7.12
2023-03-26T03:36:45.421Z,7.12
2023-03-26T03:37:36.215Z,7.09
2023-03-26T03:38:26.985Z,7.08
2023-03-26T03:39:17.776Z,7.07
2023-03-26T03:40:08.588Z,7.05
2023-03-26T03:40:59.389Z,7.05
2023-03-26T03:41:50.182Z,7.05
2023-03-26T03:42:41.013Z,7.04
2023-03-26T03:43:31.756Z,7.04
2023-03-26T03:44:22.560Z,7.04
2023-03-26T03:45:13.342Z,7.02
2023-03-26T03:46:04.219Z,7.02
2023-03-26T03:46:54.963Z,7.02
2023-03-26T03:47:45.754Z,7.02
2023-03-26T03:48:36.535Z,7.01
2023-03-26T03:49:27.321Z,7.02
2023-03-26T03:50:18.122Z,7.02
2023-03-26T03:51:08.990Z,7.02
2023-03-26T03:51:59.785Z,6.99
2023-03-26T03:52:50.563Z,7.01
2023-03-26T03:53:41.346Z,7.01
2023-03-26T03:54:32.148Z,6.98
2023-03-26T03:55:22.938Z,6.98
2023-03-26T03:56:13.737Z,6.98
2023-03-26T03:57:04.530Z,6.98
2023-03-26T03:57:55.325Z,6.97
2023-03-26T03:58:46.112Z,6.98
2023-03-26T03:59:36.892Z,6.98
2023-03-26T04:00:27.686Z,6.98
2023-03-26T04:01:18.468Z,6.98
2023-03-26T04:02:09.347Z,6.98
2023-03-26T04:03:00.204Z,6.99
2023-03-26T04:03:51.125Z,7.01
2023-03-26T04:04:42.015Z,7.01
2023-03-26T04:05:32.820Z,7.02
2023-03-26T04:06:23.617Z,7.02
2023-03-26T04:07:14.402Z,7.01
2023-03-26T04:08:05.180Z,7.02
2023-03-26T04:08:56.005Z,7.01
2023-03-26T04:09:46.755Z,7.02
2023-03-26T04:10:37.546Z,7.04
2023-03-26T04:11:28.339Z,7.04
2023-03-26T04:12:19.119Z,7.02
2023-03-26T04:13:09.936Z,7.02
2023-03-26T04:14:00.710Z,7.04
2023-03-26T04:14:51.542Z,7.01
2023-03-26T04:15:42.414Z,6.99
2023-03-26T04:16:33.228Z,6.99
2023-03-26T04:17:24.028Z,6.99
2023-03-26T04:18:14.847Z,6.99
2023-03-26T04:19:05.619Z,6.99
2023-03-26T04:19:56.424Z,7.01
2023-03-26T04:20:47.251Z,7.01
2023-03-26T04:21:38.012Z,7.02
2023-03-26T04:22:28.801Z,7.01
2023-03-26T04:23:19.593Z,7.01
2023-03-26T04:24:10.364Z,7.01
2023-03-26T04:25:01.153Z,7.02
2023-03-26T04:25:51.978Z,7.02
2023-03-26T04:26:43.226Z,7.04
2023-03-26T04:27:34.412Z,7.02
2023-03-26T04:28:25.454Z,6.99
2023-03-26T04:29:16.103Z,6.98
2023-03-26T04:30:07.273Z,6.97
2023-03-26T04:30:58.072Z,6.97
2023-03-26T04:31:48.858Z,6.98
2023-03-26T04:32:39.634Z,6.97
2023-03-26T04:33:30.369Z,6.97
2023-03-26T04:34:21.115Z,6.98
2023-03-26T04:35:11.888Z,6.99
2023-03-26T04:36:02.929Z,6.99
2023-03-26T04:36:53.326Z,7.01
2023-03-26T04:37:44.110Z,7.01
2023-03-26T04:38:34.867Z,7.01
2023-03-26T04:39:25.634Z,7.04
2023-03-26T04:40:16.435Z,7.07
2023-03-26T04:41:07.202Z,7.05
2023-03-26T04:41:57.978Z,7.07
2023-03-26T04:42:48.754Z,7.07
2023-03-26T04:43:39.528Z,7.07
2023-03-26T04:44:30.334Z,7.07
2023-03-26T04:45:21.066Z,7.08
2023-03-26T04:46:11.957Z,7.07
2023-03-26T04:47:02.973Z,7.08
2023-03-26T04:47:53.930Z,7.07
2023-03-26T04:48:44.796Z,7.04
2023-03-26T04:49:35.656Z,7.01
2023-03-26T04:50:26.586Z,7.01
2023-03-26T04:51:17.871Z,7.01
2023-03-26T04:52:08.661Z,7.01
2023-03-26T04:52:59.472Z,7.01
2023-03-26T04:53:50.127Z,6.99
2023-03-26T04:54:41.165Z,6.98
2023-03-26T04:55:32.246Z,6.97
2023-03-26T04:56:23.098Z,6.98
2023-03-26T04:57:14.017Z,6.97
2023-03-26T04:58:04.650Z,6.95
2023-03-26T04:58:55.551Z,6.91
2023-03-26T04:59:46.410Z,6.91
2023-03-26T05:00:37.276Z,6.91
2023-03-26T05:01:28.185Z,6.94
2023-03-26T05:02:19.096Z,6.91
2023-03-26T05:03:10.002Z,6.90
2023-03-26T05:04:00.897Z,6.89
2023-03-26T05:04:51.739Z,6.89
2023-03-26T05:05:42.632Z,6.86
2023-03-26T05:06:33.517Z,6.87
2023-03-26T05:07:24.403Z,6.87
2023-03-26T05:08:15.281Z,6.87
2023-03-26T05:09:06.179Z,6.86
2023-03-26T05:09:57.060Z,6.86
2023-03-26T05:10:47.956Z,6.87
2023-03-26T05:11:38.823Z,6.84
2023-03-26T05:12:29.715Z,6.86
2023-03-26T05:13:20.618Z,6.84
2023-03-26T05:14:11.522Z,6.86
2023-03-26T05:15:02.387Z,6.86
2023-03-26T05:15:53.273Z,6.87
2023-03-26T05:16:44.216Z,6.86
2023-03-26T05:17:35.191Z,6.87
2023-03-26T05:18:26.031Z,6.87
2023-03-26T05:19:16.932Z,6.89
2023-03-26T05:20:07.808Z,6.89
2023-03-26T05:20:58.739Z,6.89
2023-03-26T05:21:49.611Z,6.89
2023-03-26T05:22:40.507Z,6.86
2023-03-26T05:23:31.411Z,6.87
2023-03-26T05:24:22.281Z,6.89
2023-03-26T05:25:13.160Z,6.90
2023-03-26T05:26:04.055Z,6.91
2023-03-26T05:26:54.973Z,6.91
2023-03-26T05:27:45.863Z,6.94
2023-03-26T05:28:36.739Z,6.91
2023-03-26T05:29:27.646Z,6.95
2023-03-26T05:30:18.524Z,6.91
2023-03-26T05:31:09.406Z,6.91
2023-03-26T05:32:00.305Z,6.91
2023-03-26T05:32:51.227Z,6.90
2023-03-26T05:33:42.167Z,6.89
2023-03-26T05:34:33.068Z,6.89
2023-03-26T05:35:24.010Z,6.86
2023-03-26T05:36:14.852Z,6.83
2023-03-26T05:37:05.741Z,6.84
2023-03-26T05:37:56.672Z,6.83
2023-03-26T05:38:47.521Z,6.81
2023-03-26T05:39:38.418Z,6.79
2023-03-26T05:40:29.326Z,6.79
2023-03-26T05:41:20.236Z,6.77
2023-03-26T05:42:11.131Z,6.79
2023-03-26T05:43:02.036Z,6.77
2023-03-26T05:43:52.938Z,6.76
2023-03-26T05:44:43.874Z,6.79
2023-03-26T05:45:34.741Z,6.80
2023-03-26T05:46:25.723Z,6.79
2023-03-26T05:47:16.591Z,6.79
2023-03-26T05:48:07.527Z,6.77
2023-03-26T05:48:58.392Z,6.77
2023-03-26T05:49:49.295Z,6.77
2023-03-26T05:50:40.235Z,6.76
2023-03-26T05:51:31.149Z,6.77
2023-03-26T05:52:22.058Z,6.79
2023-03-26T05:53:12.977Z,6.79
2023-03-26T05:54:03.917Z,6.80
2023-03-26T05:54:54.815Z,6.81
2023-03-26T05:55:45.734Z,6.81
2023-03-26T05:56:36.723Z,6.83
2023-03-26T05:57:27.584Z,6.83
2023-03-26T05:58:18.510Z,6.81
2023-03-26T05:59:09.412Z,6.87
2023-03-26T06:00:00.363Z,6.86
2023-03-26T06:00:51.249Z,6.89
2023-03-26T06:01:42.197Z,6.87
2023-03-26T06:02:33.114Z,6.90
2023-03-26T06:03:24.140Z,6.90
2023-03-26T06:04:15.144Z,6.94
2023-03-26T06:05:06.039Z,6.94
2023-03-26T06:05:56.959Z,6.95
2023-03-26T06:06:47.885Z,6.95
2023-03-26T06:07:38.807Z,6.95
2023-03-26T06:08:29.723Z,6.98
2023-03-26T06:09:20.642Z,6.97
2023-03-26T06:10:11.559Z,6.98
2023-03-26T06:11:03.486Z,6.98
2023-03-26T06:11:53.181Z,6.99
2023-03-26T06:12:44.108Z,6.98
2023-03-26T06:13:35.037Z,6.98
2023-03-26T06:14:25.915Z,6.98
2023-03-26T06:15:16.948Z,6.99
2023-03-26T06:16:07.810Z,7.02
2023-03-26T06:16:58.699Z,6.99
2023-03-26T06:17:49.711Z,6.99
2023-03-26T06:18:40.672Z,6.99
2023-03-26T06:19:31.553Z,6.98
2023-03-26T06:20:22.475Z,6.99
2023-03-26T06:21:13.409Z,7.02
2023-03-26T06:22:04.312Z,7.04
2023-03-26T06:22:55.223Z,7.08
2023-03-26T06:23:46.126Z,7.09
2023-03-26T06:24:37.038Z,7.13
2023-03-26T06:25:27.970Z,7.15
2023-03-26T06:26:18.872Z,7.17
2023-03-26T06:27:09.803Z,7.19
2023-03-26T06:28:00.703Z,7.20
2023-03-26T06:28:51.621Z,7.24
2023-03-26T06:29:42.551Z,7.24
2023-03-26T06:30:33.664Z,7.27
2023-03-26T06:31:24.570Z,7.27
2023-03-26T06:32:20.087Z,7.27
2023-03-26T06:33:07.411Z,7.31
2023-03-26T06:33:57.121Z,7.31
2023-03-26T06:34:48.047Z,7.29
2023-03-26T06:35:38.993Z,7.29
2023-03-26T06:36:29.861Z,7.29
2023-03-26T06:37:20.787Z,7.29
2023-03-26T06:38:11.689Z,7.31
2023-03-26T06:39:07.775Z,7.29
2023-03-26T06:39:54.534Z,7.29
2023-03-26T06:40:44.235Z,7.29
2023-03-26T06:41:35.152Z,7.32
2023-03-26T06:43:06.754Z,7.31
2023-03-26T06:43:17.971Z,7.32
2023-03-26T06:44:07.696Z,7.32
2023-03-26T06:44:58.584Z,7.34
2023-03-26T06:45:49.536Z,7.34
2023-03-26T06:46:40.494Z,7.34
2023-03-26T06:47:31.381Z,7.35
2023-03-26T06:48:22.252Z,7.37
2023-03-26T06:49:13.177Z,7.37
2023-03-26T06:50:04.088Z,7.38
2023-03-26T06:50:55.377Z,7.34
2023-03-26T06:51:45.746Z,7.37
2023-03-26T06:52:36.669Z,7.37
2023-03-26T06:53:27.574Z,7.38
2023-03-26T06:54:18.497Z,7.38
2023-03-26T06:55:09.408Z,7.41
2023-03-26T06:56:00.337Z,7.40
2023-03-26T06:56:51.312Z,7.42
2023-03-26T06:57:42.189Z,7.41
2023-03-26T06:58:33.099Z,7.40
2023-03-26T06:59:24.021Z,7.42
2023-03-26T07:00:14.933Z,7.42
2023-03-26T07:01:05.927Z,7.41
2023-03-26T07:01:56.778Z,7.42
2023-03-26T07:02:47.823Z,7.44
2023-03-26T07:03:38.754Z,7.45
2023-03-26T07:04:29.703Z,7.45
2023-03-26T07:05:20.629Z,7.45
2023-03-26T07:06:11.555Z,7.44
2023-03-26T07:07:02.463Z,7.42
2023-03-26T07:07:53.374Z,7.41
2023-03-26T07:08:44.286Z,7.44
2023-03-26T07:09:35.208Z,7.45
2023-03-26T07:10:26.119Z,7.47
2023-03-26T07:11:17.042Z,7.47
2023-03-26T07:12:08.004Z,7.49
2023-03-26T07:12:58.929Z,7.49
2023-03-26T07:13:49.826Z,7.49
2023-03-26T07:14:40.757Z,7.49
2023-03-26T07:15:31.674Z,7.50
2023-03-26T07:16:22.717Z,7.52
2023-03-26T07:17:13.564Z,7.53
2023-03-26T07:18:04.566Z,7.53
2023-03-26T07:18:55.422Z,7.56
2023-03-26T07:19:46.341Z,7.58
2023-03-26T07:20:37.253Z,7.58
2023-03-26T07:21:28.187Z,7.60
2023-03-26T07:22:19.093Z,7.66
2023-03-26T07:23:10.031Z,7.66
2023-03-26T07:24:00.950Z,7.66
2023-03-26T07:24:51.855Z,7.67
2023-03-26T07:25:42.782Z,7.67
2023-03-26T07:26:33.699Z,7.72
2023-03-26T07:27:24.615Z,7.72
2023-03-26T07:28:15.546Z,7.71
2023-03-26T07:29:06.457Z,7.74
2023-03-26T07:29:57.368Z,7.75
2023-03-26T07:30:48.286Z,7.77
2023-03-26T07:31:39.279Z,7.79
2023-03-26T07:32:30.235Z,7.78
2023-03-26T07:33:21.220Z,7.79
2023-03-26T07:34:12.120Z,7.79
2023-03-26T07:35:02.990Z,7.81
2023-03-26T07:35:53.946Z,7.79
2023-03-26T07:36:44.817Z,7.78
2023-03-26T07:37:35.719Z,7.79
2023-03-26T07:38:26.633Z,7.78
2023-03-26T07:39:17.550Z,7.74
2023-03-26T07:40:08.467Z,7.74
2023-03-26T07:40:59.377Z,7.67
2023-03-26T07:41:50.289Z,7.63
2023-03-26T07:42:41.217Z,7.62
2023-03-26T07:43:32.120Z,7.60
2023-03-26T07:44:23.052Z,7.59
2023-03-26T07:45:13.972Z,7.56
2023-03-26T07:46:04.956Z,7.56
2023-03-26T07:46:55.875Z,7.59
2023-03-26T07:47:46.807Z,7.60
2023-03-26T07:48:37.687Z,7.62
2023-03-26T07:49:28.603Z,7.62
2023-03-26T07:50:19.553Z,7.63
2023-03-26T07:51:10.438Z,7.63
2023-03-26T07:52:01.381Z,7.67
2023-03-26T07:52:52.282Z,7.71
2023-03-26T07:53:43.208Z,7.71
2023-03-26T07:54:34.139Z,7.75
2023-03-26T07:55:25.071Z,7.79
2023-03-26T07:56:16.057Z,7.82
2023-03-26T07:57:07.022Z,7.85
2023-03-26T07:57:57.898Z,7.87
2023-03-26T07:58:48.824Z,7.89
2023-03-26T07:59:39.745Z,7.90
2023-03-26T08:00:30.699Z,7.92
2023-03-26T08:01:21.600Z,7.92
2023-03-26T08:02:12.564Z,7.93
2023-03-26T08:03:03.553Z,7.93
2023-03-26T08:03:54.614Z,7.92
2023-03-26T08:04:45.642Z,7.92
2023-03-26T08:05:36.582Z,7.90
2023-03-26T08:06:27.499Z,7.89
2023-03-26T08:07:18.424Z,7.89
2023-03-26T08:08:09.361Z,7.90
2023-03-26T08:09:00.313Z,7.90
2023-03-26T08:09:51.209Z,7.92
2023-03-26T08:10:42.373Z,7.94
2023-03-26T08:11:33.237Z,7.94
2023-03-26T08:12:24.175Z,7.99
2023-03-26T08:13:15.108Z,8.03
2023-03-26T08:14:06.032Z,8.08
2023-03-26T08:14:56.975Z,8.12
2023-03-26T08:15:47.940Z,8.12
2023-03-26T08:16:38.835Z,8.14
2023-03-26T08:17:31.232Z,8.14
2023-03-26T08:18:20.435Z,8.14
2023-03-26T08:19:11.378Z,8.14
2023-03-26T08:20:02.377Z,8.14
2023-03-26T08:20:53.487Z,8.14
2023-03-26T08:21:43.930Z,8.18
2023-03-26T08:22:34.859Z,8.21
2023-03-26T08:23:25.792Z,8.25
2023-03-26T08:24:16.731Z,8.26
2023-03-26T08:25:07.667Z,8.29
2023-03-26T08:25:58.625Z,8.32
2023-03-26T08:26:49.563Z,8.36
2023-03-26T08:27:40.525Z,8.40
2023-03-26T08:28:31.450Z,8.48
2023-03-26T08:29:22.418Z,8.48
2023-03-26T08:30:13.345Z,8.53
2023-03-26T08:31:04.340Z,8.55
2023-03-26T08:31:55.218Z,8.58
2023-03-26T08:32:46.206Z,8.62
2023-03-26T08:33:38.347Z,8.62
2023-03-26T08:34:28.184Z,8.66
2023-03-26T08:35:19.154Z,8.69
2023-03-26T08:36:10.063Z,8.68
2023-03-26T08:37:00.989Z,8.66
2023-03-26T08:37:51.898Z,8.62
2023-03-26T08:38:42.945Z,8.60
2023-03-26T08:39:33.457Z,8.58
2023-03-26T08:40:24.361Z,8.55
2023-03-26T08:41:15.290Z,8.55
2023-03-26T08:42:06.211Z,8.57
2023-03-26T08:42:57.160Z,8.62
2023-03-26T08:43:48.108Z,8.68
2023-03-26T08:44:39.065Z,8.73
2023-03-26T08:45:29.982Z,8.84
2023-03-26T08:46:20.969Z,8.96
2023-03-26T08:47:11.889Z,9.02
2023-03-26T08:48:02.855Z,9.09
2023-03-26T08:48:53.745Z,9.12
2023-03-26T08:49:44.715Z,9.21
2023-03-26T08:50:35.628Z,9.25
2023-03-26T08:51:26.577Z,9.25
2023-03-26T08:52:17.502Z,9.25
2023-03-26T08:53:08.485Z,9.24
2023-03-26T08:53:59.429Z,9.21
2023-03-26T08:54:50.357Z,9.15
2023-03-26T08:55:41.282Z,9.09
2023-03-26T08:56:32.232Z,9.05
2023-03-26T08:57:23.129Z,9.01
2023-03-26T08:58:14.072Z,9.02
2023-03-26T08:59:05.019Z,9.06
2023-03-26T08:59:55.954Z,9.09
2023-03-26T09:00:46.905Z,9.18
2023-03-26T09:01:37.886Z,9.27
2023-03-26T09:02:28.848Z,9.32
2023-03-26T09:03:19.809Z,9.34
2023-03-26T09:04:10.763Z,9.35
2023-03-26T09:05:01.689Z,9.40
2023-03-26T09:05:52.899Z,9.39
2023-03-26T09:06:43.853Z,9.43
2023-03-26T09:07:34.780Z,9.49
2023-03-26T09:08:25.716Z,9.50
2023-03-26T09:09:18.900Z,9.49
2023-03-26T09:10:07.895Z,9.49
2023-03-26T09:10:58.850Z,9.53
2023-03-26T09:11:49.788Z,9.63
2023-03-26T09:12:40.735Z,9.71
2023-03-26T09:13:31.692Z,9.78
2023-03-26T09:14:22.621Z,9.78
2023-03-26T09:15:13.564Z,9.73
2023-03-26T09:16:04.603Z,9.71
2023-03-26T09:16:55.477Z,9.64
2023-03-26T09:17:46.451Z,9.63
2023-03-26T09:18:37.413Z,9.61
2023-03-26T09:19:28.330Z,9.68
2023-03-26T09:20:19.280Z,9.70
2023-03-26T09:21:10.234Z,9.78
2023-03-26T09:22:01.169Z,9.82
2023-03-26T09:22:52.109Z,9.91
2023-03-26T09:23:43.076Z,9.96
2023-03-26T09:24:34.011Z,10.04
2023-03-26T09:25:24.956Z,10.12
2023-03-26T09:26:15.902Z,10.19
2023-03-26T09:27:06.845Z,10.26
2023-03-26T09:27:57.789Z,10.36
2023-03-26T09:28:48.737Z,10.46
2023-03-26T09:29:39.675Z,10.58
2023-03-26T09:30:30.637Z,10.68
2023-03-26T09:31:21.608Z,10.76
2023-03-26T09:32:12.515Z,10.81
2023-03-26T09:33:03.495Z,10.91
2023-03-26T09:33:54.432Z,10.95
2023-03-26T09:34:45.362Z,11.03
2023-03-26T09:35:36.333Z,11.11
2023-03-26T09:36:27.281Z,11.24
2023-03-26T09:37:18.180Z,11.36
2023-03-26T09:38:09.126Z,11.46
2023-03-26T09:39:00.094Z,11.56
2023-03-26T09:39:51.008Z,11.68
2023-03-26T09:40:41.958Z,11.77
2023-03-26T09:41:32.899Z,11.78
2023-03-26T09:42:23.846Z,11.75
2023-03-26T09:43:14.782Z,11.68
2023-03-26T09:44:05.731Z,11.61
2023-03-26T09:44:56.664Z,11.53
2023-03-26T09:45:47.690Z,11.47
2023-03-26T09:46:38.644Z,11.35
2023-03-26T09:47:29.613Z,11.21
2023-03-26T09:48:20.513Z,11.09
2023-03-26T09:49:11.478Z,10.99
2023-03-26T09:50:02.419Z,10.99
2023-03-26T09:50:53.489Z,11.02
2023-03-26T09:51:44.498Z,11.03
2023-03-26T09:52:35.445Z,11.07
2023-03-26T09:53:26.390Z,11.06
2023-03-26T09:54:17.327Z,11.06
2023-03-26T09:55:08.292Z,11.03
2023-03-26T09:55:59.218Z,11.06
2023-03-26T09:56:50.173Z,11.06
2023-03-26T09:57:41.137Z,11.09
2023-03-26T09:58:32.053Z,11.16
2023-03-26T09:59:22.976Z,11.21
2023-03-26T10:00:13.933Z,11.29
2023-03-26T10:01:04.904Z,11.39
2023-03-26T10:01:55.818Z,11.44
2023-03-26T10:02:47.585Z,11.47
2023-03-26T10:03:37.478Z,11.50
2023-03-26T10:04:28.482Z,11.49
2023-03-26T10:05:19.367Z,11.49
2023-03-26T10:06:10.324Z,11.52
2023-03-26T10:07:01.266Z,11.54
2023-03-26T10:07:52.228Z,11.53
2023-03-26T10:08:43.165Z,11.50
2023-03-26T10:09:34.110Z,11.47
2023-03-26T10:10:25.036Z,11.39
2023-03-26T10:11:15.996Z,11.34
2023-03-26T10:12:06.931Z,11.28
2023-03-26T10:13:11.602Z,11.19
2023-03-26T10:13:49.812Z,11.13
2023-03-26T10:14:39.537Z,11.09
2023-03-26T10:15:30.474Z,11.06
2023-03-26T10:16:21.454Z,11.01
2023-03-26T10:17:12.362Z,10.94
2023-03-26T10:18:03.358Z,10.91
2023-03-26T10:18:55.263Z,10.84
2023-03-26T10:19:45.000Z,10.88
2023-03-26T10:20:35.912Z,10.92
2023-03-26T10:21:28.470Z,10.98
2023-03-26T10:22:17.691Z,11.01
2023-03-26T10:23:08.593Z,10.96
2023-03-26T10:23:59.521Z,10.95
2023-03-26T10:24:50.451Z,10.89
2023-03-26T10:25:41.381Z,10.84
2023-03-26T10:26:32.336Z,10.76
2023-03-26T10:27:24.755Z,10.70
2023-03-26T10:28:13.869Z,10.59
2023-03-26T10:29:04.814Z,10.53
2023-03-26T10:29:55.707Z,10.43
2023-03-26T10:30:46.695Z,10.37
2023-03-26T10:31:37.585Z,10.32
2023-03-26T10:32:28.579Z,10.28
2023-03-26T10:33:19.468Z,10.33
2023-03-26T10:34:10.396Z,10.44
2023-03-26T10:35:02.354Z,10.60
2023-03-26T10:35:52.111Z,10.78
2023-03-26T10:36:43.024Z,10.94
2023-03-26T10:37:33.996Z,11.14
2023-03-26T10:38:24.918Z,11.29
2023-03-26T10:39:36.014Z,11.46
2023-03-26T10:40:07.849Z,11.62
2023-03-26T10:40:57.582Z,11.78
2023-03-26T10:41:48.532Z,11.86
2023-03-26T10:42:39.477Z,11.93
2023-03-26T10:43:30.413Z,11.86
2023-03-26T10:44:21.332Z,11.86
2023-03-26T10:45:12.276Z,11.82
2023-03-26T10:46:03.231Z,11.80
2023-03-26T10:46:54.142Z,11.77
2023-03-26T10:47:45.138Z,11.72
2023-03-26T10:48:36.050Z,11.64
2023-03-26T10:49:26.977Z,11.57
2023-03-26T10:50:22.985Z,11.53
2023-03-26T10:51:09.883Z,11.52
2023-03-26T10:51:59.613Z,11.49
2023-03-26T10:52:50.514Z,11.49
2023-03-26T10:53:41.468Z,11.54
2023-03-26T10:54:32.402Z,11.67
2023-03-26T10:55:25.426Z,11.77
2023-03-26T10:56:14.050Z,11.94
2023-03-26T10:57:05.248Z,12.06
2023-03-26T10:57:56.153Z,12.23
2023-03-26T10:58:49.552Z,12.39
2023-03-26T10:59:38.105Z,12.54
2023-03-26T11:00:29.122Z,12.71
2023-03-26T11:01:20.067Z,12.85
2023-03-26T11:02:11.000Z,13.00
2023-03-26T11:03:01.996Z,13.17
2023-03-26T11:03:52.895Z,13.27
2023-03-26T11:04:43.839Z,13.37
2023-03-26T11:05:34.868Z,13.38
2023-03-26T11:06:25.766Z,13.40
2023-03-26T11:07:16.705Z,13.37
2023-03-26T11:08:07.634Z,13.27
2023-03-26T11:08:58.588Z,13.21
2023-03-26T11:09:49.504Z,13.30
2023-03-26T11:10:40.451Z,13.41
2023-03-26T11:11:31.392Z,13.56
2023-03-26T11:12:26.223Z,13.73
2023-03-26T11:13:14.296Z,13.80
2023-03-26T11:14:04.011Z,13.83